Time;durP1;ratioP1;P1;durP2;ratioP2;P2;SDS_P1;SDS_P2;PMS_P1;PMS_P2;Temp;Humidity;BMP_temperature;BMP_pressure;BME280_temperature;BME280_humidity;BME280_pressure;Samples;Min_cycle;Max_cycle;Signal;HPM_P1;HPM_P2
2021/05/12 00:01:13;;;;;;;14.55;9.60;;;;;;;14.30;100.00;99819.47;5263467;28;20044;-78
2021/05/12 00:03:43;;;;;;;17.67;10.38;;;;;;;14.22;100.00;99823.50;5262747;28;20032;-78
2021/05/12 00:06:14;;;;;;;15.48;9.55;;;;;;;14.24;100.00;99834.75;5268598;28;20032;-78
2021/05/12 00:08:44;;;;;;;18.05;10.85;;;;;;;14.09;100.00;99833.03;5272652;28;20020;-78
2021/05/12 00:11:14;;;;;;;20.63;10.88;;;;;;;14.01;100.00;99832.66;5258389;28;20126;-78
2021/05/12 00:13:45;;;;;;;19.25;11.65;;;;;;;13.97;100.00;99846.91;5270044;28;20031;-78
2021/05/12 00:16:15;;;;;;;17.77;11.32;;;;;;;14.07;100.00;99834.94;5288210;28;20052;-79
2021/05/12 00:18:46;;;;;;;16.50;11.30;;;;;;;14.07;100.00;99845.44;5249603;28;20028;-78
2021/05/12 00:21:28;;;;;;;17.58;11.88;;;;;;;13.98;100.00;99854.72;5282437;28;20031;-79
2021/05/12 00:24:01;;;;;;;17.17;11.40;;;;;;;13.94;100.00;99858.44;5271687;28;20024;-78
2021/05/12 00:26:41;;;;;;;19.73;11.82;;;;;;;13.97;100.00;99857.44;5276416;28;20035;-78
2021/05/12 00:29:14;;;;;;;22.48;12.55;;;;;;;13.90;100.00;99853.50;5276650;28;20046;-78
2021/05/12 00:31:44;;;;;;;18.85;11.93;;;;;;;14.05;100.00;99844.69;5274451;28;20061;-78
2021/05/12 00:34:15;;;;;;;17.42;12.65;;;;;;;14.10;100.00;99850.50;5277878;28;20019;-78
2021/05/12 00:36:45;;;;;;;19.70;12.93;;;;;;;14.02;100.00;99856.22;5274746;28;20039;-78
2021/05/12 00:39:15;;;;;;;24.88;13.80;;;;;;;13.96;100.00;99863.63;5278027;28;20044;-78
2021/05/12 00:41:46;;;;;;;19.48;13.32;;;;;;;14.09;100.00;99854.06;5269325;28;20036;-78
2021/05/12 00:44:18;;;;;;;19.77;13.98;;;;;;;14.03;100.00;99854.41;5275392;28;20124;-78
2021/05/12 00:46:51;;;;;;;19.90;13.50;;;;;;;14.02;100.00;99857.97;5279470;28;20689;-78
2021/05/12 00:49:23;;;;;;;23.05;14.45;;;;;;;14.10;100.00;99851.31;5282505;28;20032;-78
2021/05/12 00:51:53;;;;;;;18.35;13.40;;;;;;;13.98;100.00;99861.75;5274174;28;20102;-78
2021/05/12 00:54:23;;;;;;;24.27;14.00;;;;;;;14.04;100.00;99861.34;5278076;28;20065;-78
2021/05/12 00:56:54;;;;;;;20.15;13.95;;;;;;;14.04;100.00;99851.72;5249670;28;20056;-78
2021/05/12 00:59:31;;;;;;;21.05;14.63;;;;;;;14.17;100.00;99852.69;5260262;28;20039;-78
2021/05/12 01:02:02;;;;;;;24.38;14.68;;;;;;;13.93;100.00;99853.31;5274739;28;20031;-78
2021/05/12 01:04:33;;;;;;;23.17;14.27;;;;;;;13.89;100.00;99862.31;5279636;28;20024;-78
2021/05/12 01:07:04;;;;;;;22.23;15.27;;;;;;;13.73;100.00;99866.78;5282362;28;20504;-78
2021/05/12 01:09:35;;;;;;;21.77;14.90;;;;;;;13.83;100.00;99865.28;5309083;22;20040;-80
2021/05/12 01:12:05;;;;;;;22.58;14.82;;;;;;;13.92;100.00;99855.06;5272629;28;20112;-80
2021/05/12 01:14:36;;;;;;;23.35;15.07;;;;;;;13.83;100.00;99855.66;5269312;28;20031;-80
2021/05/12 01:17:06;;;;;;;22.45;15.65;;;;;;;13.97;100.00;99854.81;5265158;28;20023;-80
2021/05/12 01:19:38;;;;;;;23.42;15.77;;;;;;;13.86;100.00;99849.34;5283505;28;20016;-80
2021/05/12 01:22:09;;;;;;;23.08;15.65;;;;;;;13.87;100.00;99848.41;5264049;28;20029;-80
2021/05/12 01:24:40;;;;;;;23.27;16.67;;;;;;;13.81;100.00;99843.53;5264111;28;20088;-80
2021/05/12 01:27:10;;;;;;;25.20;18.35;;;;;;;13.81;100.00;99847.00;5236279;28;20024;-80
2021/05/12 01:29:41;;;;;;;27.73;20.17;;;;;;;13.80;100.00;99841.84;5253709;28;20077;-81
2021/05/12 01:32:11;;;;;;;28.83;21.02;;;;;;;13.78;100.00;99848.97;5234481;28;20033;-80
2021/05/12 01:34:42;;;;;;;33.70;23.38;;;;;;;13.78;100.00;99851.59;5235275;28;20036;-81
2021/05/12 01:37:12;;;;;;;36.55;25.90;;;;;;;13.82;100.00;99843.44;5270344;28;20035;-80
2021/05/12 01:39:43;;;;;;;38.58;26.63;;;;;;;13.89;100.00;99855.25;5242912;28;20156;-81
2021/05/12 01:42:13;;;;;;;35.03;27.30;;;;;;;13.88;100.00;99850.13;5264855;28;20070;-81
2021/05/12 01:44:43;;;;;;;38.50;29.25;;;;;;;14.04;100.00;99840.34;5247789;28;20024;-81
2021/05/12 01:47:13;;;;;;;39.03;30.13;;;;;;;13.87;100.00;99858.91;5274890;28;20024;-81
2021/05/12 01:49:44;;;;;;;42.83;31.90;;;;;;;13.73;100.00;99851.03;5271279;28;20070;-81
2021/05/12 01:52:14;;;;;;;44.78;33.00;;;;;;;13.71;100.00;99852.91;5242736;28;20119;-80
2021/05/12 01:54:44;;;;;;;45.60;33.53;;;;;;;13.73;100.00;99851.03;5236492;28;20120;-81
2021/05/12 01:57:16;;;;;;;39.70;30.85;;;;;;;13.78;100.00;99854.22;5242504;28;20067;-81
2021/05/12 01:59:47;;;;;;;43.45;32.75;;;;;;;13.80;100.00;99860.22;5245051;28;20096;-81
2021/05/12 02:02:18;;;;;;;40.95;31.00;;;;;;;13.85;100.00;99861.66;5252136;28;20016;-81
2021/05/12 02:04:48;;;;;;;41.78;32.13;;;;;;;13.76;100.00;99863.97;5253262;28;20077;-81
2021/05/12 02:07:18;;;;;;;39.00;31.05;;;;;;;13.83;100.00;99862.66;5263834;28;20436;-81
2021/05/12 02:09:52;;;;;;;36.10;29.70;;;;;;;13.83;100.00;99860.03;5253908;28;20046;-81
2021/05/12 02:12:23;;;;;;;39.95;30.38;;;;;;;13.80;100.00;99860.22;5272973;28;20024;-80
2021/05/12 02:14:53;;;;;;;41.80;31.77;;;;;;;13.77;100.00;99852.53;5255922;28;20326;-80
2021/05/12 02:17:23;;;;;;;36.90;29.60;;;;;;;13.80;100.00;99852.34;5248826;28;20024;-81
2021/05/12 02:19:54;;;;;;;36.17;29.77;;;;;;;13.89;100.00;99852.63;5235865;28;20017;-80
2021/05/12 02:22:24;;;;;;;42.58;31.77;;;;;;;13.75;100.00;99849.16;5231386;28;20119;-80
2021/05/12 02:24:55;;;;;;;39.08;28.75;;;;;;;13.71;100.00;99859.00;5230525;28;20101;-80
2021/05/12 02:27:25;;;;;;;40.10;30.08;;;;;;;13.77;100.00;99852.53;5229827;28;20044;-80
2021/05/12 02:30:00;;;;;;;38.65;29.75;;;;;;;13.71;100.00;99855.53;5250119;28;20050;-80
2021/05/12 02:32:31;;;;;;;39.33;28.35;;;;;;;13.64;100.00;99854.19;5248254;28;20616;-80
2021/05/12 02:35:04;;;;;;;36.50;28.13;;;;;;;13.64;100.00;99854.19;5242061;28;20040;-79
2021/05/12 02:37:34;;;;;;;37.75;28.02;;;;;;;13.67;100.00;99852.25;5267956;28;20077;-78
2021/05/12 02:40:08;;;;;;;37.92;27.27;;;;;;;13.72;100.00;99847.56;5252403;28;20443;-78
2021/05/12 02:42:39;;;;;;;36.83;26.98;;;;;;;13.70;100.00;99852.06;5249014;28;20592;-78
2021/05/12 02:45:11;;;;;;;38.40;27.35;;;;;;;13.62;100.00;99856.06;5263968;28;20040;-81
2021/05/12 02:47:56;;;;;;;34.10;26.17;;;;;;;13.52;100.00;99853.16;5290126;28;20433;-81
2021/05/12 02:50:37;;;;;;;41.23;27.83;;;;;;;13.59;100.00;99858.88;5247584;28;20029;-81
2021/05/12 02:53:08;;;;;;;40.50;27.58;;;;;;;13.40;100.00;99853.84;5268592;28;20605;-81
2021/05/12 02:55:39;;;;;;;44.25;30.50;;;;;;;13.51;100.00;99850.59;5243921;28;20034;-81
2021/05/12 02:58:10;;;;;;;44.53;29.95;;;;;;;13.44;100.00;99851.91;5238177;28;20486;-81
2021/05/12 03:00:42;;;;;;;42.35;29.55;;;;;;;13.50;100.00;99846.28;5246292;28;20035;-81
2021/05/12 03:03:12;;;;;;;41.75;30.05;;;;;;;13.48;100.00;99856.91;5266230;28;20031;-81
2021/05/12 03:05:43;;;;;;;42.17;30.05;;;;;;;13.51;100.00;99851.47;5259970;28;20032;-81
2021/05/12 03:08:13;;;;;;;42.38;31.00;;;;;;;13.40;100.00;99853.03;5260780;28;20036;-80
2021/05/12 03:10:43;;;;;;;44.45;30.55;;;;;;;13.42;100.00;99862.47;5267619;28;20036;-80
2021/05/12 03:13:14;;;;;;;43.42;31.83;;;;;;;13.37;100.00;99864.53;5253199;28;20021;-81
2021/05/12 03:15:44;;;;;;;46.90;31.52;;;;;;;13.44;100.00;99855.34;5263535;28;20438;-81
2021/05/12 03:18:15;;;;;;;43.08;30.58;;;;;;;13.30;100.00;99857.09;5266416;28;20334;-81
2021/05/12 03:20:45;;;;;;;42.03;30.95;;;;;;;13.41;100.00;99852.91;5253814;28;20073;-81
2021/05/12 03:23:16;;;;;;;47.10;32.00;;;;;;;13.51;100.00;99851.47;5237788;28;20056;-81
2021/05/12 03:25:46;;;;;;;42.17;30.67;;;;;;;13.55;100.00;99852.13;5248278;28;20031;-81
2021/05/12 03:28:16;;;;;;;43.90;30.20;;;;;;;13.45;100.00;99853.59;5263226;28;20017;-82
2021/05/12 03:30:47;;;;;;;42.60;29.73;;;;;;;13.33;100.00;99864.81;5257683;28;20038;-82
2021/05/12 03:33:17;;;;;;;45.95;30.95;;;;;;;13.31;100.00;99872.78;5245731;28;20024;-82
2021/05/12 03:35:48;;;;;;;45.88;31.73;;;;;;;13.32;100.00;99873.59;5256965;28;20028;-80
2021/05/12 03:38:18;;;;;;;47.55;31.88;;;;;;;13.33;100.00;99875.28;5246503;28;20017;-81
2021/05/12 03:40:48;;;;;;;45.35;31.63;;;;;;;13.34;100.00;99874.38;5251314;28;20024;-81
2021/05/12 03:43:19;;;;;;;49.90;31.98;;;;;;;13.41;100.00;99880.97;5256300;28;20093;-82
2021/05/12 03:45:49;;;;;;;43.70;30.77;;;;;;;13.33;100.00;99883.16;5263769;28;20025;-81
2021/05/12 03:48:19;;;;;;;45.47;31.58;;;;;;;13.36;100.00;99877.75;5256441;28;20047;-81
2021/05/12 03:50:50;;;;;;;47.72;31.60;;;;;;;13.24;100.00;99876.66;5236717;28;20028;-81
2021/05/12 03:53:20;;;;;;;49.00;32.70;;;;;;;13.32;100.00;99868.34;5261460;28;20031;-83
2021/05/12 03:55:51;;;;;;;45.08;32.10;;;;;;;13.32;100.00;99874.47;5249285;28;20090;-83
2021/05/12 03:58:21;;;;;;;47.13;31.35;;;;;;;13.25;100.00;99869.66;5256907;28;20020;-82
2021/05/12 04:00:51;;;;;;;47.70;32.20;;;;;;;13.38;100.00;99881.97;5251217;28;20031;-83
2021/05/12 04:03:22;;;;;;;44.67;31.10;;;;;;;13.27;100.00;99873.03;5251160;28;20031;-82
2021/05/12 04:05:52;;;;;;;42.35;30.38;;;;;;;13.34;100.00;99879.59;5256206;28;20371;-83
2021/05/12 04:08:26;;;;;;;48.38;30.27;;;;;;;13.37;100.00;99876.84;5248073;28;20020;-83
2021/05/12 04:10:56;;;;;;;43.00;27.92;;;;;;;13.36;100.00;99880.38;5256417;28;20400;-82
2021/05/12 04:13:27;;;;;;;43.47;29.95;;;;;;;13.32;100.00;99876.22;5252256;28;20035;-83
2021/05/12 04:15:57;;;;;;;42.15;29.45;;;;;;;13.36;100.00;99881.22;5256270;28;20028;-82
2021/05/12 04:18:27;;;;;;;41.47;28.60;;;;;;;13.37;100.00;99879.47;5262734;28;20023;-82
2021/05/12 04:20:58;;;;;;;42.85;28.17;;;;;;;13.36;100.00;99880.38;5244368;28;20020;-83
2021/05/12 04:23:28;;;;;;;39.65;28.10;;;;;;;13.39;100.00;99888.09;5258255;28;20024;-83
2021/05/12 04:26:02;;;;;;;38.92;27.48;;;;;;;13.37;100.00;99895.22;5244833;28;20088;-83
2021/05/12 04:28:32;;;;;;;38.05;26.58;;;;;;;13.37;100.00;99897.84;5252269;28;20020;-83
2021/05/12 04:31:03;;;;;;;35.45;25.83;;;;;;;13.28;100.00;99898.34;5261156;28;20086;-82
2021/05/12 04:33:33;;;;;;;38.72;26.08;;;;;;;13.33;100.00;99898.91;5251084;28;20016;-82
2021/05/12 04:36:04;;;;;;;38.33;25.88;;;;;;;13.21;100.00;99889.16;5270362;28;20039;-82
2021/05/12 04:38:35;;;;;;;39.75;24.85;;;;;;;13.19;100.00;99902.34;5251049;28;20013;-80
2021/05/12 04:41:08;;;;;;;36.15;25.25;;;;;;;13.21;100.00;99900.47;5288350;28;20336;-81
2021/05/12 04:43:39;;;;;;;35.00;24.80;;;;;;;13.36;100.00;99911.84;5271190;28;20020;-81
2021/05/12 04:46:09;;;;;;;37.72;26.05;;;;;;;13.46;100.00;99907.78;5270255;28;20116;-81
2021/05/12 04:48:40;;;;;;;35.70;24.73;;;;;;;13.40;100.00;99914.22;5276208;28;20042;-81
2021/05/12 04:51:11;;;;;;;38.63;26.25;;;;;;;13.24;100.00;99904.72;5249665;28;20032;-81
2021/05/12 04:53:42;;;;;;;37.80;25.77;;;;;;;13.24;100.00;99915.22;5257264;28;20041;-81
2021/05/12 04:56:13;;;;;;;40.58;25.83;;;;;;;13.41;100.00;99917.72;5264059;28;20035;-81
2021/05/12 04:58:43;;;;;;;39.83;26.67;;;;;;;13.38;100.00;99920.53;5267504;28;20111;-81
2021/05/12 05:01:14;;;;;;;40.53;27.67;;;;;;;13.33;100.00;99923.41;5250767;28;20024;-81
2021/05/12 05:03:48;;;;;;;37.92;27.73;;;;;;;13.30;100.00;99925.34;5262789;28;20073;-81
2021/05/12 05:06:19;;;;;;;40.08;28.73;;;;;;;13.27;100.00;99926.34;5260451;28;20016;-81
2021/05/12 05:08:49;;;;;;;44.35;29.75;;;;;;;13.55;100.00;99923.84;5273966;28;20017;-81
2021/05/12 05:11:20;;;;;;;41.63;28.83;;;;;;;13.38;100.00;99931.03;5269848;28;20218;-81
2021/05/12 05:13:51;;;;;;;45.85;29.67;;;;;;;13.33;100.00;99935.66;5262177;28;20032;-81
2021/05/12 05:16:22;;;;;;;45.20;29.75;;;;;;;13.29;100.00;99947.28;5265098;28;20055;-81
2021/05/12 05:18:53;;;;;;;42.70;29.13;;;;;;;13.24;100.00;99941.44;5261953;28;20122;-80
2021/05/12 05:21:35;;;;;;;43.13;30.42;;;;;;;13.42;100.00;99951.72;5253719;28;20027;-80
2021/05/12 05:24:06;;;;;;;46.25;30.63;;;;;;;13.51;100.00;99948.59;5255415;28;20114;-81
2021/05/12 05:26:37;;;;;;;43.95;29.67;;;;;;;13.53;100.00;99943.22;5238601;28;20097;-81
2021/05/12 05:29:07;;;;;;;45.13;30.45;;;;;;;13.60;100.00;99939.34;5231756;28;20017;-81
2021/05/12 05:31:37;;;;;;;41.15;29.75;;;;;;;13.48;100.00;99940.91;5259625;28;20070;-81
2021/05/12 05:34:08;;;;;;;45.60;31.08;;;;;;;13.53;100.00;99936.22;5270462;28;20028;-80
2021/05/12 05:36:40;;;;;;;45.40;31.27;;;;;;;13.47;100.00;99943.59;5261369;28;20059;-80
2021/05/12 05:39:11;;;;;;;47.63;32.50;;;;;;;13.49;100.00;99941.72;5247496;28;20282;-80
2021/05/12 05:41:42;;;;;;;43.42;32.03;;;;;;;13.62;100.00;99945.34;5267332;28;20073;-80
2021/05/12 05:44:13;;;;;;;47.10;32.10;;;;;;;13.63;100.00;99944.41;5261653;28;20028;-81
2021/05/12 05:46:44;;;;;;;48.85;33.03;;;;;;;13.63;100.00;99954.91;5256017;28;20033;-80
2021/05/12 05:49:15;;;;;;;47.47;31.73;;;;;;;13.72;100.00;99944.72;5258858;28;20477;-81
2021/05/12 05:51:45;;;;;;;47.58;32.63;;;;;;;13.70;100.00;99945.72;5265783;28;20065;-81
2021/05/12 05:54:17;;;;;;;48.83;33.22;;;;;;;13.67;100.00;99956.41;5254475;28;20089;-81
2021/05/12 05:56:48;;;;;;;55.60;34.25;;;;;;;13.64;100.00;99970.59;5259115;28;20490;-80
2021/05/12 05:59:19;;;;;;;52.67;34.38;;;;;;;13.77;100.00;99970.72;5249116;28;20023;-81
2021/05/12 06:01:49;;;;;;;48.15;33.70;;;;;;;13.72;100.00;99965.72;5244980;28;20078;-82
2021/05/12 06:04:20;;;;;;;58.22;36.30;;;;;;;13.70;100.00;99957.09;5259008;28;20054;-82
2021/05/12 06:06:51;;;;;;;49.28;33.25;;;;;;;13.82;100.00;99950.28;5261773;28;20061;-81
2021/05/12 06:09:23;;;;;;;50.05;32.70;;;;;;;13.79;100.00;99950.47;5251721;28;20179;-81
2021/05/12 06:11:57;;;;;;;52.88;34.10;;;;;;;13.74;100.00;99952.53;5266586;28;20023;-81
2021/05/12 06:14:29;;;;;;;54.05;33.22;;;;;;;13.89;100.00;99956.88;5279551;28;20054;-81
2021/05/12 06:17:03;;;;;;;55.03;33.63;;;;;;;13.83;100.00;99962.47;5265633;28;20268;-81
2021/05/12 06:19:40;;;;;;;55.72;33.92;;;;;;;13.95;100.00;99977.53;5262102;28;20028;-81
2021/05/12 06:22:11;;;;;;;54.60;33.38;;;;;;;13.94;100.00;99981.09;5254650;28;20024;-81
2021/05/12 06:24:43;;;;;;;50.55;32.55;;;;;;;13.96;100.00;99984.47;5262750;28;20095;-81
2021/05/12 06:27:15;;;;;;;53.08;33.30;;;;;;;13.89;100.00;99988.41;5247700;28;20051;-81
2021/05/12 06:29:45;;;;;;;54.33;32.70;;;;;;;13.99;100.00;100000.91;5247242;28;20028;-81
2021/05/12 06:32:16;;;;;;;50.40;32.80;;;;;;;13.96;100.00;100000.22;5247067;28;20089;-81
2021/05/12 06:34:46;;;;;;;55.50;33.38;;;;;;;13.91;100.00;100000.50;5255222;28;20429;-81
2021/05/12 06:37:17;;;;;;;52.97;32.60;;;;;;;13.89;100.00;100009.41;5261906;28;20513;-81
2021/05/12 06:39:50;;;;;;;47.95;32.10;;;;;;;13.81;100.00;99998.50;5247255;28;20020;-81
2021/05/12 06:42:20;;;;;;;53.40;33.08;;;;;;;13.94;100.00;100004.75;5260986;28;20501;-81
2021/05/12 06:44:50;;;;;;;50.83;31.05;;;;;;;14.00;100.00;100002.59;5250528;28;20034;-81
2021/05/12 06:47:21;;;;;;;53.80;32.33;;;;;;;14.04;100.00;100000.63;5260218;28;20035;-81
2021/05/12 06:49:51;;;;;;;51.00;32.55;;;;;;;14.14;100.00;100000.03;5260451;28;20068;-81
2021/05/12 06:52:22;;;;;;;48.65;31.48;;;;;;;14.10;100.00;100000.28;5246636;28;20394;-81
2021/05/12 06:54:53;;;;;;;52.60;30.58;;;;;;;14.09;100.00;100007.31;5265093;28;20025;-81
2021/05/12 06:57:23;;;;;;;46.17;28.48;;;;;;;14.06;100.00;100006.66;5244073;28;20392;-81
2021/05/12 06:59:53;;;;;;;44.97;27.50;;;;;;;14.05;100.00;100015.47;5257758;28;20048;-81
2021/05/12 07:02:24;;;;;;;39.15;25.10;;;;;;;14.03;100.00;100027.84;5243351;28;20028;-81
2021/05/12 07:04:54;;;;;;;37.40;24.50;;;;;;;13.95;100.00;100016.94;5256528;28;20111;-80
2021/05/12 07:07:25;;;;;;;37.22;24.05;;;;;;;13.95;100.00;100020.41;5260237;28;20024;-81
2021/05/12 07:09:55;;;;;;;41.90;24.23;;;;;;;13.91;100.00;100029.41;5238398;22;20115;-82
2021/05/12 07:12:26;;;;;;;38.60;24.38;;;;;;;13.92;100.00;100023.19;5239625;28;20040;-82
2021/05/12 07:14:56;;;;;;;34.83;24.25;;;;;;;14.00;100.00;100033.28;5234576;28;20033;-82
2021/05/12 07:17:26;;;;;;;39.40;23.70;;;;;;;14.03;100.00;100033.09;5224268;28;20033;-82
2021/05/12 07:19:57;;;;;;;37.35;24.02;;;;;;;13.99;100.00;100032.44;5220285;28;20027;-82
2021/05/12 07:22:27;;;;;;;34.50;23.63;;;;;;;14.17;100.00;100041.06;5237531;28;20099;-82
2021/05/12 07:24:59;;;;;;;36.97;24.38;;;;;;;14.32;100.00;100037.53;5219158;28;20071;-82
2021/05/12 07:27:29;;;;;;;37.03;24.13;;;;;;;14.41;100.00;100045.72;5245456;28;20028;-82
2021/05/12 07:30:00;;;;;;;34.55;23.10;;;;;;;14.57;100.00;100049.13;5215760;28;20021;-82
2021/05/12 07:32:30;;;;;;;33.88;23.40;;;;;;;14.43;100.00;100050.88;5220331;28;20032;-82
2021/05/12 07:35:00;;;;;;;34.95;23.63;;;;;;;14.51;100.00;100041.59;5213666;28;20078;-82
2021/05/12 07:37:31;;;;;;;33.42;22.65;;;;;;;14.44;100.00;100050.78;5242428;28;20067;-81
2021/05/12 07:40:01;;;;;;;34.17;22.52;;;;;;;14.55;100.00;100048.38;5227150;28;20050;-81
2021/05/12 07:42:32;;;;;;;35.67;22.60;;;;;;;14.61;100.00;100055.88;5216105;28;20025;-81
2021/05/12 07:45:02;;;;;;;34.47;23.27;;;;;;;14.57;100.00;100054.38;5239884;28;20059;-81
2021/05/12 07:47:32;;;;;;;34.53;23.23;;;;;;;14.44;100.00;100047.31;5228572;28;20036;-81
2021/05/12 07:50:07;;;;;;;35.25;23.77;;;;;;;14.35;100.00;100055.75;5219991;28;20024;-82
2021/05/12 07:52:37;;;;;;;32.42;21.40;;;;;;;14.17;100.00;100059.44;5248892;28;20068;-83
2021/05/12 07:55:08;;;;;;;31.42;21.45;;;;;;;14.28;100.00;100057.88;5241206;28;20021;-82
2021/05/12 07:57:39;;;;;;;30.90;22.48;;;;;;;14.27;100.00;100063.25;5237733;28;20032;-81
2021/05/12 08:00:10;;;;;;;32.22;22.02;;;;;;;14.35;100.00;100061.00;5232453;28;20075;-81
2021/05/12 08:02:41;;;;;;;37.55;23.15;;;;;;;14.37;100.00;100069.63;5231844;28;20024;-81
2021/05/12 08:05:12;;;;;;;31.27;22.10;;;;;;;14.43;100.00;100079.81;5228841;28;20055;-81
2021/05/12 08:07:42;;;;;;;31.52;21.45;;;;;;;14.47;100.00;100078.69;5251649;28;20574;-81
2021/05/12 08:10:12;;;;;;;29.73;21.85;;;;;;;14.47;100.00;100070.78;5247605;28;20502;-81
2021/05/12 08:12:43;;;;;;;31.13;20.55;;;;;;;14.44;100.00;100071.00;5246829;28;20094;-81
2021/05/12 08:15:13;;;;;;;33.15;21.52;;;;;;;14.15;100.00;100064.78;5219149;28;20462;-81
2021/05/12 08:17:44;;;;;;;31.30;20.77;;;;;;;14.10;100.00;100071.22;5223767;28;20028;-81
2021/05/12 08:20:14;;;;;;;32.10;21.35;;;;;;;14.13;100.00;100061.41;5220250;28;20494;-81
2021/05/12 08:22:45;;;;;;;27.50;19.65;;;;;;;14.14;100.00;100059.59;5243592;28;20025;-81
2021/05/12 08:25:15;;;;;;;29.13;20.70;;;;;;;14.11;100.00;100071.13;5227826;28;20031;-81
2021/05/12 08:27:46;;;;;;;28.08;19.25;;;;;;;14.11;100.00;100067.66;5245576;28;20021;-81
2021/05/12 08:30:17;;;;;;;25.17;17.38;;;;;;;14.26;100.00;100069.44;5234917;28;20051;-81
2021/05/12 08:32:47;;;;;;;26.67;17.70;;;;;;;14.34;100.00;100077.72;5227859;28;20036;-81
2021/05/12 08:35:17;;;;;;;27.13;16.88;;;;;;;14.35;100.00;100082.03;5218505;28;20565;-81
2021/05/12 08:37:51;;;;;;;23.92;16.73;;;;;;;14.36;100.00;100073.19;5235423;28;20020;-81
2021/05/12 08:40:22;;;;;;;22.30;14.85;;;;;;;14.47;100.00;100065.53;5244927;28;20040;-81
2021/05/12 08:42:54;;;;;;;22.63;15.73;;;;;;;14.58;100.00;100071.03;5219491;28;20082;-81
2021/05/12 08:45:25;;;;;;;22.73;15.32;;;;;;;14.70;100.00;100078.16;5243062;28;20052;-81
2021/05/12 08:47:56;;;;;;;17.45;13.10;;;;;;;14.40;100.00;100082.63;5227368;28;20020;-81
2021/05/12 08:50:27;;;;;;;18.05;13.43;;;;;;;14.15;100.00;100079.69;5242763;28;20032;-81
2021/05/12 08:52:57;;;;;;;20.38;13.23;;;;;;;14.15;100.00;100080.56;5220115;28;20662;-81
2021/05/12 08:55:28;;;;;;;19.30;14.25;;;;;;;14.16;100.00;100081.41;5238243;28;20021;-81
2021/05/12 08:57:59;;;;;;;22.98;14.30;;;;;;;14.42;100.00;100075.50;5221609;28;20439;-81
2021/05/12 09:00:30;;;;;;;18.17;13.00;;;;;;;14.46;100.00;100080.44;5229310;28;20032;-81
2021/05/12 09:03:02;;;;;;;18.02;13.18;;;;;;;14.57;100.00;100087.75;5220750;28;20028;-82
2021/05/12 09:05:32;;;;;;;19.48;12.63;;;;;;;14.46;100.00;100079.63;5225004;28;20029;-82
2021/05/12 09:08:03;;;;;;;17.98;11.93;;;;;;;14.66;100.00;100079.28;5220570;28;20043;-82
2021/05/12 09:10:33;;;;;;;16.90;12.77;;;;;;;14.89;100.00;100075.19;5224099;28;20039;-82
2021/05/12 09:13:04;;;;;;;18.48;13.05;;;;;;;15.06;100.00;100076.78;5241779;28;20367;-82
2021/05/12 09:15:35;;;;;;;18.83;10.98;;;;;;;15.25;100.00;100072.91;5240845;28;20024;-82
2021/05/12 09:18:05;;;;;;;16.88;11.80;;;;;;;15.30;100.00;100073.50;5221626;28;20031;-82
2021/05/12 09:20:39;;;;;;;14.55;11.20;;;;;;;15.16;100.00;100078.72;5212723;28;20461;-82
2021/05/12 09:23:12;;;;;;;16.27;11.60;;;;;;;15.26;100.00;100077.22;5222819;28;20032;-81
2021/05/12 09:25:55;;;;;;;17.17;10.93;;;;;;;15.13;100.00;100083.34;5218698;28;20021;-82
2021/05/12 09:28:28;;;;;;;14.57;10.25;;;;;;;15.08;100.00;100088.91;5229759;28;20043;-81
2021/05/12 09:31:10;;;;;;;14.32;10.48;;;;;;;15.23;100.00;100085.34;5220484;28;20043;-80
2021/05/12 09:33:48;;;;;;;12.73;9.70;;;;;;;15.32;100.00;100082.13;5231154;28;20107;-82
2021/05/12 09:36:29;;;;;;;16.40;9.55;;;;;;;15.21;100.00;100081.91;5230733;28;20027;-82
2021/05/12 09:38:59;;;;;;;12.85;8.70;;;;;;;15.18;100.00;100076.84;5237871;28;20502;-82
2021/05/12 09:41:35;;;;;;;13.68;8.65;;;;;;;15.01;100.00;100084.13;5222163;28;20035;-82
2021/05/12 09:44:07;;;;;;;14.52;9.48;;;;;;;15.13;100.00;100081.56;5231571;28;20036;-81
2021/05/12 09:46:40;;;;;;;15.07;9.73;;;;;;;15.16;100.00;100089.25;5244141;28;20035;-80
2021/05/12 09:49:15;;;;;;;13.55;8.98;;;;;;;14.95;100.00;100087.97;5225408;28;20023;-81
2021/05/12 09:51:47;;;;;;;8.95;5.85;;;;;;;14.72;100.00;100086.78;5246612;28;20450;-82
2021/05/12 09:54:20;;;;;;;10.18;7.50;;;;;;;14.89;100.00;100085.72;5240655;28;20041;-81
2021/05/12 09:56:54;;;;;;;10.27;7.32;;;;;;;14.86;100.00;100088.50;5216385;28;20028;-81
2021/05/12 09:59:26;;;;;;;12.07;8.32;;;;;;;15.09;100.00;100090.59;5222460;28;20028;-81
2021/05/12 10:01:59;;;;;;;10.02;6.95;;;;;;;15.20;100.00;100088.13;5220855;28;20115;-81
2021/05/12 10:07:24;;;;;;;9.13;7.10;;;;;;;14.99;100.00;100086.81;5240705;28;20559;-82
2021/05/12 10:09:56;;;;;;;9.35;6.25;;;;;;;15.03;100.00;100092.75;5224837;28;20477;-81
2021/05/12 10:12:29;;;;;;;9.77;5.97;;;;;;;14.93;100.00;100092.47;5246353;28;20059;-82
2021/05/12 10:14:59;;;;;;;10.25;6.70;;;;;;;14.74;100.00;100100.72;5222740;28;20125;-82
2021/05/12 10:17:31;;;;;;;7.57;5.93;;;;;;;14.66;100.00;100089.81;5243430;28;20056;-81
2021/05/12 10:20:02;;;;;;;9.07;6.90;;;;;;;14.89;100.00;100098.88;5226288;28;20649;-81
2021/05/12 10:22:32;;;;;;;9.30;6.80;;;;;;;15.16;100.00;100099.78;5223999;28;20025;-81
2021/05/12 10:25:04;;;;;;;9.77;5.95;;;;;;;15.05;100.00;100102.22;5223615;28;20035;-81
2021/05/12 10:27:34;;;;;;;7.75;6.10;;;;;;;15.26;100.00;100102.69;5221392;28;20108;-81
2021/05/12 10:30:07;;;;;;;8.45;5.90;;;;;;;15.41;100.00;100101.78;5230190;28;20059;-80
2021/05/12 10:32:46;;;;;;;8.70;6.22;;;;;;;15.31;99.30;100101.50;5239033;28;20028;-82
2021/05/12 10:35:17;;;;;;;8.57;5.80;;;;;;;15.47;98.42;100104.88;5226901;28;20473;-81
2021/05/12 10:37:47;;;;;;;7.55;5.97;;;;;;;15.54;99.35;100098.28;5217737;28;20029;-81
2021/05/12 10:40:39;;;;;;;8.70;6.20;;;;;;;15.44;98.45;100094.53;5220861;28;20021;-81
2021/05/12 10:45:54;;;;;;;6.78;5.30;;;;;;;15.47;99.97;100099.63;5244761;28;20568;-81
2021/05/12 10:48:42;;;;;;;8.77;5.75;;;;;;;15.59;100.00;100095.34;5215763;28;20123;-80
2021/05/12 10:51:19;;;;;;;8.05;5.75;;;;;;;15.58;100.00;100104.19;5229128;28;20055;-80
2021/05/12 10:53:52;;;;;;;9.30;5.47;;;;;;;15.54;100.00;100095.63;5243646;28;20390;-79
2021/05/12 10:56:43;;;;;;;7.47;5.90;;;;;;;15.47;100.00;100094.34;5229893;28;20029;-80
2021/05/12 10:59:18;;;;;;;7.78;5.45;;;;;;;15.52;99.93;100096.69;5245151;28;20037;-80
2021/05/12 11:01:54;;;;;;;8.13;5.30;;;;;;;15.55;99.75;100099.97;5238744;28;20152;-80
2021/05/12 11:04:25;;;;;;;6.68;5.50;;;;;;;15.50;99.35;100095.94;5236036;28;20060;-80
2021/05/12 11:06:57;;;;;;;8.10;5.45;;;;;;;15.69;99.75;100094.66;5217893;28;20063;-80
2021/05/12 11:09:40;;;;;;;7.85;5.40;;;;;;;15.77;97.65;100097.69;5222283;28;20017;-79
2021/05/12 11:12:15;;;;;;;6.70;5.50;;;;;;;15.66;97.04;100094.00;5237380;28;20036;-79
2021/05/12 11:15:00;;;;;;;7.88;5.47;;;;;;;15.75;95.50;100094.28;5217485;28;20140;-80
2021/05/12 11:17:50;;;;;;;7.75;5.60;;;;;;;15.72;96.76;100096.28;5245627;28;20270;-80
2021/05/12 11:20:24;;;;;;;9.93;6.47;;;;;;;15.77;95.95;100096.81;5217476;28;20055;-80
2021/05/12 11:22:55;;;;;;;8.70;5.85;;;;;;;15.90;96.38;100090.66;5234994;28;20017;-79
2021/05/12 11:25:34;;;;;;;8.75;6.13;;;;;;;15.79;96.73;100095.78;5235034;28;20660;-79
2021/05/12 11:33:35;;;;;;;9.93;6.75;;;;;;;15.91;95.99;100091.50;5235075;28;20322;-79
2021/05/12 11:38:41;;;;;;;6.97;5.30;;;;;;;15.71;94.99;100092.78;5237893;28;20036;-80
2021/05/12 11:41:17;;;;;;;7.60;5.20;;;;;;;15.69;95.14;100096.47;5225052;28;20516;-80
2021/05/12 11:43:51;;;;;;;7.35;5.25;;;;;;;15.74;94.42;100094.38;5224219;28;20029;-80